Time;durP1;ratioP1;P1;durP2;ratioP2;P2;SDS_P1;SDS_P2;PMS_P1;PMS_P2;Temp;Humidity;BMP_temperature;BMP_pressure;BME280_temperature;BME280_humidity;BME280_pressure;Samples;Min_cycle;Max_cycle;Signal;HPM_P1;HPM_P2
2022/02/11 00:05:43;;;;;;;3.83;2.03;;;5.80;99.90;;;;;;4193960;28;20389;-70
2022/02/11 00:07:42;;;;;;;3.67;1.90;;;5.90;99.90;;;;;;4192118;28;20478;-70
2022/02/11 00:09:42;;;;;;;4.15;2.00;;;5.80;99.90;;;;;;4193136;28;20029;-70
2022/02/11 00:11:43;;;;;;;3.80;1.73;;;5.80;99.90;;;;;;4194486;28;20067;-70
2022/02/11 00:13:44;;;;;;;6.45;2.17;;;5.90;99.90;;;;;;4194117;28;20044;-70
2022/02/11 00:15:44;;;;;;;3.80;2.00;;;5.80;99.90;;;;;;4194591;28;20037;-70
2022/02/11 00:17:45;;;;;;;4.15;2.13;;;5.80;99.90;;;;;;4194059;28;20102;-70
2022/02/11 00:19:46;;;;;;;4.45;2.05;;;5.80;99.90;;;;;;4193418;28;20481;-70
2022/02/11 00:21:47;;;;;;;4.35;2.08;;;5.80;99.90;;;;;;4191789;28;20606;-70
2022/02/11 00:23:48;;;;;;;4.65;2.05;;;5.80;99.90;;;;;;4193086;28;20115;-70
2022/02/11 00:25:55;;;;;;;5.43;2.25;;;5.80;99.90;;;;;;4194075;28;20120;-70
2022/02/11 00:32:24;;;;;;;5.05;2.00;;;5.70;99.90;;;;;;4193977;28;20120;-71
2022/02/11 00:34:34;;;;;;;5.57;2.25;;;5.60;99.90;;;;;;4192268;28;20488;-70
2022/02/11 00:36:54;;;;;;;4.15;2.33;;;5.60;99.90;;;;;;4193610;28;20109;-70
2022/02/11 01:04:10;;;;;;;4.97;3.15;;;5.40;99.90;;;;;;4177376;28;20043;-70
2022/02/11 01:06:11;;;;;;;6.57;3.10;;;5.40;99.90;;;;;;4174019;28;20026;-70
2022/02/11 01:08:11;;;;;;;9.43;3.20;;;5.40;99.90;;;;;;4177664;28;20036;-70
2022/02/11 01:10:15;;;;;;;6.43;3.20;;;5.40;99.90;;;;;;4203215;28;20421;-70
2022/02/11 01:12:16;;;;;;;4.60;3.08;;;5.30;99.90;;;;;;4192430;28;20033;-70
2022/02/11 01:14:19;;;;;;;6.10;3.50;;;5.20;99.90;;;;;;4190731;28;20055;-70
2022/02/11 01:16:26;;;;;;;4.72;3.00;;;5.30;99.90;;;;;;4194285;28;20443;-70
2022/02/11 01:18:27;;;;;;;9.45;3.60;;;5.30;99.90;;;;;;4192280;28;20036;-70
2022/02/11 01:20:45;;;;;;;4.88;3.20;;;5.20;99.90;;;;;;4171048;28;21390;-69
2022/02/11 01:23:05;;;;;;;6.30;3.33;;;5.20;99.90;;;;;;4189572;28;20033;-70
2022/02/11 01:25:29;;;;;;;4.90;3.50;;;5.30;99.90;;;;;;4190927;28;20075;-70
2022/02/11 01:50:20;;;;;;;;;;;5.20;99.90;;;;;;4174825;28;20108;-70
2022/02/11 02:05:36;;;;;;;5.88;3.70;;;5.10;99.90;;;;;;4171696;28;20044;-70
2022/02/11 02:19:15;;;;;;;8.85;5.38;;;5.10;99.90;;;;;;4196343;28;20059;-70
2022/02/11 02:23:26;;;;;;;8.13;4.88;;;5.00;99.90;;;;;;4195574;28;20046;-70
2022/02/11 02:25:52;;;;;;;8.52;4.40;;;5.00;99.90;;;;;;4190451;28;20562;-71
2022/02/11 02:33:10;;;;;;;10.10;5.15;;;5.00;99.90;;;;;;4178285;28;20040;-70
2022/02/11 02:57:47;;;;;;;8.93;5.28;;;4.70;99.90;;;;;;4196004;28;20056;-69
2022/02/11 03:35:37;;;;;;;10.63;5.32;;;4.70;99.90;;;;;;4179255;28;20366;-69
2022/02/11 03:51:14;;;;;;;13.05;5.25;;;4.80;99.90;;;;;;4177811;28;20033;-71
2022/02/11 04:21:13;;;;;;;14.73;4.97;;;4.90;99.90;;;;;;4193527;28;20482;-71
2022/02/11 04:55:40;;;;;;;14.88;5.00;;;5.10;99.90;;;;;;4191371;28;20048;-71
2022/02/11 04:59:59;;;;;;;11.52;4.20;;;5.10;99.90;;;;;;4173965;28;20033;-70
2022/02/11 05:02:00;;;;;;;12.88;4.45;;;5.10;99.90;;;;;;4176042;28;20071;-70
2022/02/11 05:04:01;;;;;;;12.60;4.60;;;5.20;99.90;;;;;;4191369;28;20417;-71
2022/02/11 05:06:01;;;;;;;16.98;4.72;;;5.20;99.90;;;;;;4176176;28;20159;-70
2022/02/11 05:08:03;;;;;;;14.68;4.63;;;5.20;99.90;;;;;;4173964;28;20028;-70
2022/02/11 05:10:05;;;;;;;12.50;4.18;;;5.30;99.90;;;;;;4189929;28;20024;-70
2022/02/11 05:12:06;;;;;;;10.05;3.75;;;5.30;99.90;;;;;;4192802;28;20124;-70
2022/02/11 05:14:07;;;;;;;17.73;4.32;;;5.30;99.90;;;;;;4191989;28;20047;-71
2022/02/11 05:16:08;;;;;;;16.83;5.20;;;5.30;99.90;;;;;;4190745;28;20064;-70
2022/02/11 05:18:09;;;;;;;16.02;4.47;;;5.30;99.90;;;;;;4191606;28;20025;-71
2022/02/11 05:20:10;;;;;;;11.23;3.75;;;5.40;99.90;;;;;;4190936;28;20482;-70
2022/02/11 05:22:11;;;;;;;14.57;4.47;;;5.40;99.90;;;;;;4191354;28;20031;-70
2022/02/11 05:24:11;;;;;;;16.35;4.07;;;5.40;99.90;;;;;;4189577;28;20036;-71
2022/02/11 05:26:12;;;;;;;16.45;3.78;;;5.40;99.90;;;;;;4191114;28;20029;-71
2022/02/11 05:28:13;;;;;;;14.13;3.90;;;5.40;99.90;;;;;;4189560;28;20097;-71
2022/02/11 05:30:13;;;;;;;17.17;4.13;;;5.40;99.90;;;;;;4191241;28;22597;-71
2022/02/11 05:32:15;;;;;;;20.75;4.70;;;5.40;99.90;;;;;;4173457;28;20044;-71
2022/02/11 05:34:15;;;;;;;14.32;3.80;;;5.40;99.90;;;;;;4175174;28;20222;-71
2022/02/11 05:36:16;;;;;;;14.32;3.97;;;5.50;99.90;;;;;;4188852;28;20057;-71
2022/02/11 05:38:17;;;;;;;16.08;4.18;;;5.40;99.90;;;;;;4173593;28;20037;-71
2022/02/11 05:40:18;;;;;;;12.93;3.95;;;5.40;99.90;;;;;;4187599;28;20049;-71
2022/02/11 05:42:18;;;;;;;13.88;4.07;;;5.40;99.90;;;;;;4171734;28;20033;-71
2022/02/11 05:44:20;;;;;;;15.00;4.07;;;5.40;99.90;;;;;;4171867;28;20037;-71
2022/02/11 05:46:21;;;;;;;15.75;3.80;;;5.40;99.90;;;;;;4173524;28;20687;-71
2022/02/11 05:48:22;;;;;;;16.77;3.88;;;5.40;99.90;;;;;;4174439;28;20449;-71
2022/02/11 05:50:23;;;;;;;14.75;4.30;;;5.40;99.90;;;;;;4172093;28;20120;-71
2022/02/11 05:52:25;;;;;;;15.25;3.67;;;5.40;99.90;;;;;;4171405;28;20029;-71
2022/02/11 05:54:26;;;;;;;16.08;4.15;;;5.40;99.90;;;;;;4173659;28;20045;-71
2022/02/11 05:56:27;;;;;;;22.55;4.68;;;5.40;99.90;;;;;;4184641;28;20044;-71
2022/02/11 05:58:28;;;;;;;17.05;3.85;;;5.50;99.90;;;;;;4185368;28;20102;-71
2022/02/11 06:00:28;;;;;;;11.05;3.53;;;5.40;99.90;;;;;;4185393;28;20037;-71
2022/02/11 06:02:29;;;;;;;14.15;3.60;;;5.50;99.90;;;;;;4191175;28;20044;-71
2022/02/11 06:04:29;;;;;;;10.98;3.97;;;5.50;99.90;;;;;;4189705;28;20040;-71
2022/02/11 06:06:30;;;;;;;9.27;3.08;;;5.50;99.90;;;;;;4170277;28;20414;-71
2022/02/11 06:08:31;;;;;;;18.85;3.75;;;5.50;99.90;;;;;;4171887;28;20041;-71
2022/02/11 06:10:31;;;;;;;13.55;3.70;;;5.50;99.90;;;;;;4172250;28;20927;-71
2022/02/11 06:12:32;;;;;;;10.60;3.25;;;5.50;99.90;;;;;;4174589;28;20406;-71
2022/02/11 06:14:35;;;;;;;15.02;3.78;;;5.50;99.90;;;;;;4199908;28;20524;-71
2022/02/11 06:16:35;;;;;;;;;;;5.60;99.90;;;;;;4171444;28;20097;-71
2022/02/11 06:18:37;;;;;;;13.60;3.78;;;5.60;99.90;;;;;;4173207;28;20001;-71
2022/02/11 06:20:37;;;;;;;15.97;3.60;;;5.60;99.90;;;;;;4186401;28;20033;-71
2022/02/11 06:22:39;;;;;;;16.65;3.60;;;5.60;99.90;;;;;;4175814;28;20064;-71
2022/02/11 06:24:39;;;;;;;16.70;3.88;;;5.60;99.90;;;;;;4174656;28;20048;-70
2022/02/11 06:26:41;;;;;;;28.48;4.25;;;5.60;99.90;;;;;;4173030;28;20037;-71
2022/02/11 06:28:42;;;;;;;23.00;3.90;;;5.60;99.90;;;;;;4173688;28;20044;-71
2022/02/11 06:30:43;;;;;;;14.93;3.72;;;5.60;99.90;;;;;;4172459;28;20029;-71
2022/02/11 06:32:43;;;;;;;13.60;3.30;;;5.70;99.90;;;;;;4174185;28;20402;-70
2022/02/11 06:34:44;;;;;;;18.85;3.85;;;5.60;99.90;;;;;;4174447;28;20486;-70
2022/02/11 06:36:45;;;;;;;12.27;3.40;;;5.60;99.90;;;;;;4186111;28;20037;-70
2022/02/11 06:38:46;;;;;;;13.95;3.42;;;5.70;99.90;;;;;;4189306;28;20044;-71
2022/02/11 06:40:47;;;;;;;18.85;3.50;;;5.70;99.90;;;;;;4182627;28;21633;-71
2022/02/11 06:42:47;;;;;;;20.58;3.88;;;5.70;99.90;;;;;;4174774;28;20048;-71
2022/02/11 06:44:48;;;;;;;16.73;3.85;;;5.60;99.90;;;;;;4174154;28;20029;-71
2022/02/11 06:46:49;;;;;;;15.40;3.45;;;5.60;99.90;;;;;;4172262;28;20036;-71
2022/02/11 06:48:49;;;;;;;20.58;3.65;;;5.60;99.90;;;;;;4171964;28;20088;-71
2022/02/11 06:50:51;;;;;;;27.58;4.07;;;5.60;99.90;;;;;;4171125;28;20029;-70
2022/02/11 06:52:55;;;;;;;19.17;3.65;;;5.60;99.90;;;;;;4173404;28;20037;-71
2022/02/11 06:54:55;;;;;;;23.63;4.05;;;5.60;99.90;;;;;;4177684;28;20072;-70
2022/02/11 06:56:56;;;;;;;29.20;4.35;;;5.60;99.90;;;;;;4189297;28;20902;-70
2022/02/11 06:58:57;;;;;;;13.07;3.30;;;5.60;99.90;;;;;;4189937;28;20058;-70
2022/02/11 07:00:57;;;;;;;17.38;3.67;;;5.60;99.90;;;;;;4189013;28;20083;-70
2022/02/11 07:02:58;;;;;;;18.40;3.85;;;5.60;99.90;;;;;;4189315;28;20067;-70
2022/02/11 07:04:59;;;;;;;19.40;3.55;;;5.60;99.90;;;;;;4183245;28;20752;-70
2022/02/11 07:06:59;;;;;;;23.98;4.32;;;5.60;99.90;;;;;;4174756;28;20059;-70
2022/02/11 07:09:00;;;;;;;16.75;3.28;;;5.60;99.90;;;;;;4174029;28;20041;-70
2022/02/11 07:11:02;;;;;;;15.45;3.72;;;5.60;99.90;;;;;;4187938;28;20051;-70
2022/02/11 07:13:03;;;;;;;19.33;4.00;;;5.60;99.90;;;;;;4191524;28;20594;-70
2022/02/11 07:15:04;;;;;;;15.30;3.25;;;5.60;99.90;;;;;;4191717;28;20044;-70
2022/02/11 07:17:04;;;;;;;14.93;2.83;;;5.50;99.90;;;;;;4180102;28;20041;-70
2022/02/11 07:19:05;;;;;;;19.02;3.63;;;5.50;99.90;;;;;;4190496;28;20520;-69
2022/02/11 07:21:05;;;;;;;16.77;2.83;;;5.50;99.90;;;;;;4191678;28;20111;-70
2022/02/11 07:23:07;;;;;;;15.25;3.10;;;5.50;99.90;;;;;;4190695;28;20060;-70
2022/02/11 07:25:10;;;;;;;22.30;3.28;;;5.50;99.90;;;;;;4189395;28;20498;-70
2022/02/11 07:27:12;;;;;;;18.70;3.30;;;5.50;99.90;;;;;;4177596;28;20767;-70
2022/02/11 07:29:14;;;;;;;18.08;3.17;;;5.50;99.90;;;;;;4174793;28;20029;-70
2022/02/11 07:31:15;;;;;;;17.27;3.15;;;5.50;99.90;;;;;;4172498;28;20068;-70
2022/02/11 07:33:16;;;;;;;19.33;3.42;;;5.50;99.90;;;;;;4176414;28;20364;-70
2022/02/11 07:35:18;;;;;;;22.88;3.28;;;5.50;99.90;;;;;;4175368;28;20053;-70
2022/02/11 07:37:19;;;;;;;20.60;3.28;;;5.50;99.90;;;;;;4176910;28;20029;-70
2022/02/11 07:39:20;;;;;;;17.30;3.13;;;5.50;99.90;;;;;;4175788;28;20537;-70
2022/02/11 07:41:21;;;;;;;14.32;2.67;;;5.50;99.90;;;;;;4173020;28;20040;-70
2022/02/11 07:43:23;;;;;;;18.30;3.25;;;5.50;99.90;;;;;;4190985;28;20041;-70
2022/02/11 07:45:27;;;;;;;16.65;3.60;;;5.50;99.90;;;;;;4190443;28;20752;-70
2022/02/11 07:47:27;;;;;;;13.30;2.47;;;5.40;99.90;;;;;;4172949;28;20090;-70
2022/02/11 07:49:28;;;;;;;10.77;2.22;;;5.40;99.90;;;;;;4175880;28;20128;-70
2022/02/11 07:51:29;;;;;;;14.27;2.45;;;5.40;99.90;;;;;;4178288;28;20483;-70
2022/02/11 07:53:29;;;;;;;11.45;2.40;;;5.40;99.90;;;;;;4175503;28;20053;-70
2022/02/11 07:55:30;;;;;;;10.10;2.30;;;5.30;99.90;;;;;;4175336;28;20044;-70
2022/02/11 07:57:31;;;;;;;10.02;2.15;;;5.30;99.90;;;;;;4174291;28;20049;-70
2022/02/11 07:59:33;;;;;;;11.70;2.42;;;5.50;99.90;;;;;;4175412;28;20060;-70
2022/02/11 08:01:33;;;;;;;9.30;1.98;;;5.60;99.90;;;;;;4172996;28;20076;-70
2022/02/11 08:03:34;;;;;;;11.50;2.15;;;5.70;99.90;;;;;;4174127;28;20588;-70
2022/02/11 08:05:35;;;;;;;11.82;2.13;;;5.90;99.90;;;;;;4175148;28;20103;-70
2022/02/11 08:07:36;;;;;;;9.05;1.95;;;6.00;99.90;;;;;;4173527;28;20033;-70
2022/02/11 08:09:36;;;;;;;11.10;2.35;;;6.20;99.90;;;;;;4214694;28;20056;-70
2022/02/11 08:11:37;;;;;;;5.90;1.40;;;6.40;99.90;;;;;;4181449;28;20037;-70
2022/02/11 08:13:38;;;;;;;10.00;2.15;;;6.50;99.90;;;;;;4174280;28;20037;-70
2022/02/11 08:15:39;;;;;;;13.75;2.35;;;6.60;99.90;;;;;;4174603;28;20040;-70
2022/02/11 08:17:41;;;;;;;10.75;2.25;;;6.80;99.90;;;;;;4175429;28;20406;-70
2022/02/11 08:19:42;;;;;;;7.50;2.33;;;6.90;99.90;;;;;;4175260;28;20033;-70
2022/02/11 08:21:42;;;;;;;11.18;1.95;;;7.00;99.90;;;;;;4180349;28;20037;-70
2022/02/11 08:23:43;;;;;;;8.85;2.30;;;7.10;99.90;;;;;;4190396;28;20032;-70
2022/02/11 08:25:44;;;;;;;12.60;2.40;;;7.10;99.90;;;;;;4189956;28;20029;-70
2022/02/11 08:27:47;;;;;;;9.45;2.15;;;7.10;99.90;;;;;;4184919;28;20803;-70
2022/02/11 08:29:48;;;;;;;11.20;2.10;;;7.20;99.90;;;;;;4173992;28;20048;-70
2022/02/11 08:31:48;;;;;;;10.43;2.42;;;7.40;99.90;;;;;;4174216;28;20505;-70
2022/02/11 08:33:51;;;;;;;11.45;2.40;;;7.60;99.90;;;;;;4175362;28;20052;-70
2022/02/11 08:35:53;;;;;;;6.60;1.95;;;7.70;99.90;;;;;;4189240;28;20163;-70
2022/02/11 08:37:54;;;;;;;9.35;2.10;;;8.00;99.90;;;;;;4175008;28;20118;-70
2022/02/11 08:39:55;;;;;;;9.90;2.63;;;8.00;99.90;;;;;;4173833;28;20049;-70
2022/02/11 08:41:55;;;;;;;11.02;2.92;;;8.10;99.90;;;;;;4181590;28;20039;-70
2022/02/11 08:43:56;;;;;;;11.02;2.53;;;8.10;99.90;;;;;;4173088;28;20490;-70
2022/02/11 08:45:56;;;;;;;8.50;2.20;;;8.10;99.90;;;;;;4174943;28;20048;-70
2022/02/11 08:47:57;;;;;;;10.95;2.58;;;8.10;99.90;;;;;;4181488;28;20026;-70
2022/02/11 08:49:59;;;;;;;12.25;3.47;;;8.30;99.90;;;;;;4178855;28;20158;-70
2022/02/11 08:51:59;;;;;;;9.93;2.90;;;8.50;99.90;;;;;;4173840;28;20112;-70
2022/02/11 08:54:00;;;;;;;11.80;2.90;;;8.50;99.90;;;;;;4185102;28;20068;-70
2022/02/11 08:56:06;;;;;;;12.70;2.90;;;8.60;99.90;;;;;;4190160;28;20090;-70
2022/02/11 08:58:06;;;;;;;12.18;2.50;;;8.80;99.90;;;;;;4191253;28;20422;-70
2022/02/11 09:00:08;;;;;;;19.15;3.38;;;8.90;99.90;;;;;;4191263;28;20024;-70
2022/02/11 09:02:11;;;;;;;16.30;3.30;;;8.90;99.90;;;;;;4187816;28;20032;-70
2022/02/11 09:04:11;;;;;;;12.00;3.10;;;8.90;99.90;;;;;;4190384;28;20033;-70
2022/02/11 09:06:12;;;;;;;9.75;2.80;;;8.90;99.90;;;;;;4187988;28;20425;-70
2022/02/11 09:08:13;;;;;;;15.50;2.80;;;8.70;99.90;;;;;;4178212;28;20033;-70
2022/02/11 09:10:14;;;;;;;14.98;3.60;;;8.50;99.90;;;;;;4171666;28;20029;-70
2022/02/11 09:12:15;;;;;;;16.77;3.63;;;8.40;99.90;;;;;;4174067;28;20044;-70
2022/02/11 09:14:15;;;;;;;16.35;3.05;;;8.10;99.90;;;;;;4173019;28;20033;-70
2022/02/11 09:16:18;;;;;;;19.85;3.90;;;8.10;99.90;;;;;;4172675;28;20102;-70
2022/02/11 09:18:19;;;;;;;28.13;3.90;;;7.90;99.90;;;;;;4170373;28;20052;-70
2022/02/11 09:20:21;;;;;;;25.85;4.25;;;7.70;99.90;;;;;;4171893;28;20406;-70
2022/02/11 09:22:22;;;;;;;15.02;3.20;;;7.50;99.90;;;;;;4197795;28;20501;-70
2022/02/11 09:24:22;;;;;;;19.60;3.60;;;7.50;99.90;;;;;;4174153;28;20029;-70
2022/02/11 09:26:23;;;;;;;14.20;3.30;;;7.40;99.90;;;;;;4173156;28;20031;-70
2022/02/11 09:28:24;;;;;;;16.10;3.38;;;7.30;99.90;;;;;;4174470;28;20033;-70
2022/02/11 09:30:25;;;;;;;18.02;3.30;;;7.20;99.90;;;;;;4171822;28;20503;-70
2022/02/11 09:32:25;;;;;;;18.48;3.10;;;7.20;99.90;;;;;;4181655;28;20452;-70
2022/02/11 09:34:27;;;;;;;12.63;2.58;;;7.30;99.90;;;;;;4174321;28;20044;-70
2022/02/11 09:36:27;;;;;;;15.88;3.45;;;7.50;99.90;;;;;;4171936;28;20579;-70
2022/02/11 09:38:28;;;;;;;17.25;3.35;;;7.60;99.90;;;;;;4170513;28;20037;-70
2022/02/11 09:40:29;;;;;;;20.73;4.00;;;7.80;99.90;;;;;;4172136;28;20037;-70
2022/02/11 09:42:30;;;;;;;19.75;3.95;;;7.90;99.90;;;;;;4171792;28;20537;-70
2022/02/11 09:44:32;;;;;;;19.23;3.90;;;8.00;99.90;;;;;;4187701;28;20051;-75
2022/02/11 09:46:36;;;;;;;21.52;4.10;;;7.90;99.90;;;;;;4189087;28;20033;-70
2022/02/11 09:48:37;;;;;;;17.58;3.53;;;8.00;99.90;;;;;;4190454;28;20036;-70
2022/02/11 09:50:37;;;;;;;21.02;3.83;;;8.10;99.90;;;;;;4180179;28;20045;-70
2022/02/11 09:52:44;;;;;;;17.42;3.70;;;8.20;99.90;;;;;;4173103;28;20401;-70
2022/02/11 09:54:45;;;;;;;20.13;4.65;;;8.10;99.90;;;;;;4177967;28;20067;-70
2022/02/11 09:56:50;;;;;;;19.63;3.38;;;8.20;99.90;;;;;;4173233;28;20057;-70
2022/02/11 09:58:52;;;;;;;14.70;3.20;;;8.30;99.90;;;;;;4172138;28;20659;-70
2022/02/11 10:00:53;;;;;;;22.80;4.00;;;8.40;99.90;;;;;;4177851;28;20112;-70
2022/02/11 10:02:56;;;;;;;21.95;4.50;;;8.40;99.90;;;;;;4189123;28;20071;-70
2022/02/11 10:04:58;;;;;;;22.70;3.90;;;8.40;99.90;;;;;;4173290;28;20029;-70
2022/02/11 10:06:59;;;;;;;21.90;3.95;;;8.50;99.90;;;;;;4184452;28;20141;-70
2022/02/11 10:09:00;;;;;;;18.30;3.63;;;8.40;99.90;;;;;;4190581;28;20528;-70
2022/02/11 10:11:03;;;;;;;20.60;3.83;;;8.40;99.90;;;;;;4189713;28;20044;-70
2022/02/11 10:13:05;;;;;;;;;;;8.50;99.90;;;;;;4188486;28;20037;-70
2022/02/11 10:15:18;;;;;;;21.30;4.00;;;8.40;99.90;;;;;;4189338;28;20005;-70
2022/02/11 10:17:19;;;;;;;;;;;8.40;99.90;;;;;;4189203;28;20040;-70
2022/02/11 10:19:43;;;;;;;20.50;3.78;;;8.40;99.90;;;;;;4189726;28;19951;-70
2022/02/11 10:21:47;;;;;;;23.15;4.32;;;8.30;99.90;;;;;;4172651;28;20037;-70
2022/02/11 10:23:51;;;;;;;23.27;3.60;;;8.30;99.90;;;;;;4172531;28;20029;-70
2022/02/11 10:25:54;;;;;;;14.88;3.22;;;8.40;99.90;;;;;;4173428;28;20029;-70
2022/02/11 10:27:55;;;;;;;17.92;3.40;;;8.40;99.90;;;;;;4171702;28;20097;-70
2022/02/11 10:30:01;;;;;;;21.77;4.35;;;8.40;99.90;;;;;;4173721;28;20569;-70
2022/02/11 10:32:01;;;;;;;22.13;3.53;;;8.30;99.90;;;;;;4189461;28;20040;-70
2022/02/11 10:34:12;;;;;;;20.27;4.03;;;8.40;99.90;;;;;;4190023;28;20426;-70
2022/02/11 10:36:38;;;;;;;16.08;3.58;;;8.40;99.90;;;;;;4188461;28;20020;-70
2022/02/11 10:38:39;;;;;;;25.02;4.38;;;8.50;99.90;;;;;;4174673;28;20036;-70
2022/02/11 10:40:41;;;;;;;15.98;3.97;;;8.50;99.90;;;;;;4176402;28;20036;-70
2022/02/11 10:42:46;;;;;;;20.50;3.78;;;8.50;99.90;;;;;;4176541;28;20029;-70
2022/02/11 10:44:47;;;;;;;22.70;4.78;;;8.50;99.90;;;;;;4174478;28;20061;-70
2022/02/11 10:46:51;;;;;;;20.50;4.03;;;8.50;99.90;;;;;;4173576;28;20049;-70
2022/02/11 10:48:51;;;;;;;20.05;3.65;;;8.50;99.90;;;;;;4175948;28;20029;-70
2022/02/11 10:50:57;;;;;;;16.58;3.33;;;8.50;99.90;;;;;;4175788;28;20029;-70
2022/02/11 10:52:57;;;;;;;19.85;3.75;;;8.50;99.90;;;;;;4190710;28;20044;-70
2022/02/11 10:54:58;;;;;;;18.67;4.10;;;8.50;99.90;;;;;;4175866;28;20052;-70
2022/02/11 10:57:00;;;;;;;18.23;2.85;;;8.50;99.90;;;;;;4175403;28;20559;-70
2022/02/11 10:59:01;;;;;;;17.95;3.90;;;8.60;99.90;;;;;;4192464;28;20139;-70
2022/02/11 11:01:05;;;;;;;15.30;3.92;;;8.60;99.90;;;;;;4180860;28;20059;-70
2022/02/11 11:03:10;;;;;;;19.63;3.20;;;8.60;99.90;;;;;;4177144;28;20033;-70
2022/02/11 11:05:12;;;;;;;18.75;3.10;;;8.60;99.90;;;;;;4174170;28;20484;-70
2022/02/11 11:07:25;;;;;;;16.85;3.75;;;8.50;99.90;;;;;;4174195;28;20045;-70
2022/02/11 11:09:28;;;;;;;;;;;8.40;99.90;;;;;;4186397;28;20533;-70
2022/02/11 11:11:29;;;;;;;17.75;3.28;;;8.50;99.90;;;;;;4175069;28;20486;-70
2022/02/11 11:13:31;;;;;;;22.85;4.10;;;8.30;99.90;;;;;;4175825;28;20048;-70
2022/02/11 11:15:31;;;;;;;19.88;3.60;;;8.40;99.90;;;;;;4175594;28;20037;-70
2022/02/11 11:17:36;;;;;;;24.30;4.07;;;8.40;99.90;;;;;;4174984;28;20099;-70
2022/02/11 11:19:37;;;;;;;16.50;3.35;;;8.30;99.90;;;;;;4176126;28;20037;-70
2022/02/11 11:21:43;;;;;;;12.95;3.55;;;8.30;99.90;;;;;;4175879;28;20475;-70
2022/02/11 11:23:53;;;;;;;10.48;2.80;;;8.30;99.90;;;;;;4175831;28;20037;-70
2022/02/11 11:26:09;;;;;;;12.27;2.83;;;8.30;99.90;;;;;;4192490;28;20085;-70
2022/02/11 11:28:09;;;;;;;14.73;3.10;;;8.30;99.90;;;;;;4175231;28;20512;-70
2022/02/11 11:30:29;;;;;;;18.83;3.75;;;8.30;99.90;;;;;;4175929;28;20025;-70
2022/02/11 11:32:30;;;;;;;17.05;3.20;;;8.20;99.90;;;;;;4172850;28;20041;-70
2022/02/11 11:34:35;;;;;;;22.08;3.40;;;8.10;99.90;;;;;;4176103;28;20410;-70
2022/02/11 11:36:40;;;;;;;18.08;3.63;;;8.10;99.90;;;;;;4175262;28;20055;-70
2022/02/11 11:38:45;;;;;;;22.85;3.63;;;8.10;99.90;;;;;;4175701;28;20045;-70
2022/02/11 11:41:05;;;;;;;21.63;4.00;;;8.20;99.90;;;;;;4173648;28;20032;-70
2022/02/11 11:43:13;;;;;;;14.57;3.15;;;8.20;99.90;;;;;;4175688;28;20607;-70
2022/02/11 11:45:27;;;;;;;11.95;2.80;;;8.20;99.90;;;;;;4174675;28;20498;-70
2022/02/11 11:47:37;;;;;;;12.02;3.15;;;8.20;99.90;;;;;;4174514;28;20048;-70
2022/02/11 11:49:40;;;;;;;17.95;3.10;;;8.30;99.90;;;;;;4176594;28;20912;-70
2022/02/11 11:51:40;;;;;;;13.43;3.20;;;8.40;99.90;;;;;;4192283;27;20056;-70
2022/02/11 11:53:41;;;;;;;13.77;2.42;;;8.40;99.90;;;;;;4191194;28;20051;-70
2022/02/11 11:55:42;;;;;;;12.73;2.83;;;8.40;99.90;;;;;;4176668;28;20029;-70
2022/02/11 11:57:42;;;;;;;11.10;2.72;;;8.40;99.90;;;;;;4174635;28;20064;-70
2022/02/11 11:59:50;;;;;;;8.88;2.15;;;8.40;99.90;;;;;;4174111;28;20048;-70
2022/02/11 12:02:06;;;;;;;22.48;3.10;;;8.30;99.90;;;;;;4188961;28;20033;-70
2022/02/11 12:04:30;;;;;;;14.32;3.05;;;8.20;99.90;;;;;;4190122;28;20036;-70
2022/02/11 12:06:31;;;;;;;14.77;2.67;;;8.20;99.90;;;;;;4173650;28;20104;-70
2022/02/11 12:08:37;;;;;;;10.13;2.00;;;8.20;99.90;;;;;;4175164;28;20791;-70
2022/02/11 12:10:37;;;;;;;13.65;2.70;;;8.40;99.90;;;;;;4191358;28;20045;-70
2022/02/11 12:12:38;;;;;;;8.65;2.35;;;8.40;99.90;;;;;;4186828;28;20758;-71
2022/02/11 12:14:41;;;;;;;14.73;2.08;;;8.60;99.90;;;;;;4175340;28;20127;-71
2022/02/11 12:16:41;;;;;;;11.77;2.85;;;8.60;99.90;;;;;;4189474;28;20032;-70
2022/02/11 12:18:46;;;;;;;13.32;3.03;;;8.60;99.90;;;;;;4175100;28;20082;-70
2022/02/11 12:20:47;;;;;;;10.38;2.45;;;8.50;99.90;;;;;;4173939;28;20041;-70
2022/02/11 12:27:20;;;;;;;10.63;2.38;;;8.50;99.90;;;;;;4176209;28;20033;-70
2022/02/11 12:27:34;;;;;;;8.27;2.10;;;8.50;99.90;;;;;;4188332;28;20473;-70
2022/02/11 12:29:36;;;;;;;11.07;2.10;;;8.50;99.90;;;;;;4173095;28;20044;-70
2022/02/11 12:31:38;;;;;;;12.30;2.72;;;8.60;99.90;;;;;;4174448;28;20045;-70
2022/02/11 12:33:39;;;;;;;8.75;1.80;;;8.60;99.90;;;;;;4176816;28;20498;-70
2022/02/11 12:35:45;;;;;;;12.50;2.45;;;8.60;99.90;;;;;;4173329;28;20037;-71
2022/02/11 12:37:47;;;;;;;11.65;2.60;;;8.60;99.90;;;;;;4175587;28;20040;-71
2022/02/11 12:39:59;;;;;;;5.72;1.95;;;8.60;99.90;;;;;;4173750;28;20037;-71
2022/02/11 12:42:00;;;;;;;8.60;1.88;;;8.60;99.90;;;;;;4173548;28;20552;-71
2022/02/11 12:44:01;;;;;;;8.88;2.10;;;8.60;99.90;;;;;;4171557;28;20120;-71
2022/02/11 12:46:04;;;;;;;13.48;2.05;;;8.60;99.90;;;;;;4174711;28;20037;-71
2022/02/11 12:48:09;;;;;;;12.13;2.15;;;8.70;99.90;;;;;;4174874;28;20084;-71
2022/02/11 12:50:11;;;;;;;8.75;2.25;;;8.60;99.90;;;;;;4173946;28;20543;-71
2022/02/11 12:52:17;;;;;;;6.93;1.67;;;8.60;99.90;;;;;;4183723;28;20049;-71
2022/02/11 12:54:19;;;;;;;8.55;2.20;;;8.60;99.90;;;;;;4174496;28;20056;-71
2022/02/11 12:56:20;;;;;;;10.60;3.10;;;8.40;99.90;;;;;;4176578;28;20455;-71
2022/02/11 12:58:21;;;;;;;4.50;1.40;;;8.30;99.90;;;;;;4175484;28;20120;-71
2022/02/11 13:00:27;;;;;;;10.60;2.33;;;8.30;99.90;;;;;;4172259;28;20525;-71
2022/02/11 13:02:30;;;;;;;9.75;2.00;;;8.30;99.90;;;;;;4173689;28;20091;-71
2022/02/11 13:04:31;;;;;;;11.25;1.88;;;8.40;99.90;;;;;;4172644;28;20047;-71
2022/02/11 13:06:35;;;;;;;8.70;2.55;;;8.40;99.90;;;;;;4174247;28;20508;-71
2022/02/11 13:08:35;;;;;;;10.02;2.00;;;8.40;99.90;;;;;;4181619;28;20041;-71
2022/02/11 13:10:41;;;;;;;10.88;2.63;;;8.50;99.90;;;;;;4171979;28;20063;-71
2022/02/11 13:12:44;;;;;;;9.15;2.10;;;8.60;99.90;;;;;;4173822;28;20120;-71
2022/02/11 13:14:44;;;;;;;11.73;2.00;;;8.60;99.90;;;;;;4174568;28;20033;-71
2022/02/11 13:16:45;;;;;;;10.38;1.80;;;8.60;99.90;;;;;;4173448;28;20071;-71
2022/02/11 13:18:46;;;;;;;13.00;2.40;;;8.60;99.90;;;;;;4174230;28;20060;-71
2022/02/11 13:21:01;;;;;;;9.45;2.47;;;8.50;99.90;;;;;;4174761;28;20032;-71
2022/02/11 13:23:02;;;;;;;6.82;1.55;;;8.30;99.90;;;;;;4192400;28;20123;-71
2022/02/11 13:25:04;;;;;;;7.05;2.10;;;8.30;99.90;;;;;;4191941;28;20052;-71
2022/02/11 13:27:04;;;;;;;7.35;1.90;;;8.20;99.90;;;;;;4192217;28;20067;-71
2022/02/11 13:29:12;;;;;;;7.75;1.98;;;8.20;99.90;;;;;;4190652;28;20032;-71
2022/02/11 13:31:13;;;;;;;7.63;1.90;;;8.20;99.90;;;;;;4177749;28;20068;-71
2022/02/11 13:33:37;;;;;;;7.80;2.10;;;8.20;99.90;;;;;;4176390;28;20033;-71
2022/02/11 13:35:42;;;;;;;9.25;1.58;;;8.20;99.90;;;;;;4158834;28;20046;-71
2022/02/11 13:37:46;;;;;;;12.00;2.03;;;8.10;99.90;;;;;;4173807;28;20406;-71
2022/02/11 13:39:46;;;;;;;11.90;1.80;;;8.10;99.90;;;;;;4175136;28;20037;-71
2022/02/11 13:41:47;;;;;;;8.73;1.90;;;8.20;99.90;;;;;;4188072;28;20045;-72
2022/02/11 13:44:04;;;;;;;8.27;1.52;;;8.20;99.90;;;;;;4192911;28;20056;-71
2022/02/11 13:46:06;;;;;;;8.30;1.45;;;8.20;99.90;;;;;;4182946;28;20048;-72
2022/02/11 13:48:07;;;;;;;8.65;1.98;;;8.30;99.90;;;;;;4176445;28;20036;-72
2022/02/11 13:50:08;;;;;;;8.75;2.20;;;8.30;99.90;;;;;;4173891;28;20124;-72
2022/02/11 13:54:27;;;;;;;7.80;1.90;;;8.30;99.90;;;;;;4175335;28;20110;-72
2022/02/11 13:56:33;;;;;;;8.80;1.48;;;8.40;99.90;;;;;;4187703;28;20053;-72
2022/02/11 13:58:34;;;;;;;9.95;2.17;;;8.30;99.90;;;;;;4179526;28;20123;-73
2022/02/11 14:00:38;;;;;;;9.32;2.05;;;8.30;99.90;;;;;;4171214;28;20079;-72
2022/02/11 14:02:42;;;;;;;7.63;2.08;;;8.30;99.90;;;;;;4177314;28;20047;-72
2022/02/11 14:04:42;;;;;;;7.88;2.03;;;8.20;99.90;;;;;;4185360;28;20037;-72
2022/02/11 14:06:56;;;;;;;7.32;1.88;;;8.20;99.90;;;;;;4187839;28;20388;-72
2022/02/11 14:08:58;;;;;;;7.78;2.10;;;8.20;99.90;;;;;;4173660;28;21518;-72
2022/02/11 14:11:21;;;;;;;7.40;1.63;;;8.30;99.90;;;;;;4190046;28;20064;-72
2022/02/11 14:13:22;;;;;;;9.80;2.05;;;8.30;99.90;;;;;;4173924;28;20027;-72
2022/02/11 14:15:28;;;;;;;7.28;1.75;;;8.40;99.90;;;;;;4176618;28;20061;-72
2022/02/11 14:17:30;;;;;;;8.95;1.77;;;8.50;99.90;;;;;;4175327;28;20041;-73
2022/02/11 14:19:30;;;;;;;13.63;2.38;;;8.60;99.90;;;;;;4177090;28;20406;-72
2022/02/11 14:21:31;;;;;;;11.32;2.25;;;8.60;99.90;;;;;;4193276;28;20045;-72
2022/02/11 14:23:32;;;;;;;8.38;2.28;;;8.60;99.90;;;;;;4191476;28;20044;-72
2022/02/11 14:25:33;;;;;;;7.85;1.60;;;8.60;99.90;;;;;;4183972;28;20071;-72
2022/02/11 14:27:35;;;;;;;19.50;2.75;;;8.60;99.90;;;;;;4176986;28;20064;-72
2022/02/11 14:29:35;;;;;;;10.65;2.25;;;8.60;99.90;;;;;;4176396;28;20045;-72
2022/02/11 14:31:36;;;;;;;12.82;1.95;;;8.60;99.90;;;;;;4176303;28;20071;-72